首页
METAR-TAF:

METAR-TAF

机场 :

Klawock, 阿拉斯加州, 美国

纬度: 55-35N, 经度: 133-05W, 海拔: 24米

当前天气观测

该预报发布于1小时和37分钟前的06:53 UTC
静风
温度 15°C
湿度 82%
气压 1020 hPa
能見度: 16.1公里
多云层高于3500英尺
阴天层高于4400英尺

METAR: PAKW 220653Z AUTO 00000KT 10SM BKN035 OVC044 15/12 A3013 RMK AO2 SLP202 T01500117 TSNO

时间: 00:30 (08:30 UTC)

预报

该预报发布于3小时和2分钟前的05:28 UTC
预报有效从22日的 06点(UTC)到 23日的 06点(UTC)
风速5节,风向西南
能見度: 10公里
多云层高于4000英尺
阴天层高于6000英尺
从 22日的 1200点(UTC)
风速3节,风向南转西南
能見度: 10公里
多云层高于1500英尺
阴天层高于2500英尺
从 22日的 2100点(UTC)
风速4节,风向西南
能見度: 10公里
阴天层高于5000英尺

TAF: PAKW 220528Z 2206/2306 22005KT P6SM BKN040 OVC060 FM221200 21003KT P6SM BKN015 OVC025 FM222100 22004KT P6SM OVC050 AMD LTD TO CLD VIS AND WIND

超过4000个机场的气象观测和天气预报(METAR&TAF报告)。

可查询的气象台以黄色和红色小点在地图上表示。

将鼠标移到小点上方,可查看气象台名称。

然后点击查看天气观测和预报。

如需切换地图:点击带黑十字的绿色按钮放大地图;点击带横线的绿色按钮缩小地图;或者点击绿色箭头查看邻近地区的地图。


METAR-TAF: